sensor_id;sensor_type;location;lat;lon;timestamp;pressure;altitude;pressure_sealevel;temperature;humidity
49423;BME280;36998;51.974;20.150;2022-07-06T00:02:13;100278.72;;;17.64;79.01
49423;BME280;36998;51.974;20.150;2022-07-06T00:04:39;100273.06;;;17.66;78.97
49423;BME280;36998;51.974;20.150;2022-07-06T00:07:04;100267.63;;;17.66;78.96
49423;BME280;36998;51.974;20.150;2022-07-06T00:09:30;100270.34;;;17.66;79.01
49423;BME280;36998;51.974;20.150;2022-07-06T00:11:55;100268.88;;;17.63;78.98
49423;BME280;36998;51.974;20.150;2022-07-06T00:14:21;100268.03;;;17.63;79.04
49423;BME280;36998;51.974;20.150;2022-07-06T00:16:46;100264.88;;;17.66;78.95
49423;BME280;36998;51.974;20.150;2022-07-06T00:19:12;100268.44;;;17.66;79.27
49423;BME280;36998;51.974;20.150;2022-07-06T00:21:38;100264.00;;;17.65;78.94
49423;BME280;36998;51.974;20.150;2022-07-06T00:24:04;100267.81;;;17.64;78.87
49423;BME280;36998;51.974;20.150;2022-07-06T00:26:29;100274.75;;;17.67;79.22
49423;BME280;36998;51.974;20.150;2022-07-06T00:28:55;100270.97;;;17.68;79.18
49423;BME280;36998;51.974;20.150;2022-07-06T00:31:26;100271.59;;;17.70;79.07
49423;BME280;36998;51.974;20.150;2022-07-06T00:33:51;100270.75;;;17.69;79.04
49423;BME280;36998;51.974;20.150;2022-07-06T00:36:17;100271.59;;;17.70;79.36
49423;BME280;36998;51.974;20.150;2022-07-06T00:38:42;100265.50;;;17.74;78.95
49423;BME280;36998;51.974;20.150;2022-07-06T00:41:08;100271.63;;;17.76;78.93
49423;BME280;36998;51.974;20.150;2022-07-06T00:46:32;100260.47;;;17.85;79.03
49423;BME280;36998;51.974;20.150;2022-07-06T00:48:59;100254.16;;;17.84;78.80
49423;BME280;36998;51.974;20.150;2022-07-06T00:51:29;100253.09;;;17.85;78.54
49423;BME280;36998;51.974;20.150;2022-07-06T00:53:58;100245.97;;;17.84;78.40
49423;BME280;36998;51.974;20.150;2022-07-06T00:56:25;100235.69;;;17.86;78.75
49423;BME280;36998;51.974;20.150;2022-07-06T00:58:53;100235.47;;;17.88;78.22
49423;BME280;36998;51.974;20.150;2022-07-06T01:01:19;100233.13;;;17.91;78.15
49423;BME280;36998;51.974;20.150;2022-07-06T01:03:44;100227.47;;;17.93;78.02
49423;BME280;36998;51.974;20.150;2022-07-06T01:06:10;100225.34;;;17.95;78.25
49423;BME280;36998;51.974;20.150;2022-07-06T01:08:36;100226.00;;;17.97;77.63
49423;BME280;36998;51.974;20.150;2022-07-06T01:11:02;100218.03;;;17.95;77.99
49423;BME280;36998;51.974;20.150;2022-07-06T01:13:30;100216.31;;;17.94;78.10
49423;BME280;36998;51.974;20.150;2022-07-06T01:15:56;100218.03;;;17.95;77.86
49423;BME280;36998;51.974;20.150;2022-07-06T01:18:22;100214.66;;;17.93;78.01
49423;BME280;36998;51.974;20.150;2022-07-06T01:20:47;100218.44;;;17.92;77.86
49423;BME280;36998;51.974;20.150;2022-07-06T01:23:13;100223.50;;;17.89;78.06
49423;BME280;36998;51.974;20.150;2022-07-06T01:25:39;100213.00;;;17.86;78.07
49423;BME280;36998;51.974;20.150;2022-07-06T01:28:05;100210.69;;;17.83;78.33
49423;BME280;36998;51.974;20.150;2022-07-06T01:30:30;100208.38;;;17.80;78.17
49423;BME280;36998;51.974;20.150;2022-07-06T01:32:56;100212.97;;;17.72;78.28
49423;BME280;36998;51.974;20.150;2022-07-06T01:35:22;100213.81;;;17.66;78.22
49423;BME280;36998;51.974;20.150;2022-07-06T01:37:49;100219.06;;;17.61;78.36
49423;BME280;36998;51.974;20.150;2022-07-06T01:40:15;100214.25;;;17.57;78.44
49423;BME280;36998;51.974;20.150;2022-07-06T01:42:41;100206.66;;;17.52;78.65
49423;BME280;36998;51.974;20.150;2022-07-06T01:45:07;100198.69;;;17.50;78.23
49423;BME280;36998;51.974;20.150;2022-07-06T01:47:34;100207.94;;;17.49;78.24
49423;BME280;36998;51.974;20.150;2022-07-06T01:50:05;100203.94;;;17.45;78.47
49423;BME280;36998;51.974;20.150;2022-07-06T01:52:34;100201.63;;;17.42;78.73
49423;BME280;36998;51.974;20.150;2022-07-06T01:55:01;100211.09;;;17.40;78.63
49423;BME280;36998;51.974;20.150;2022-07-06T01:57:29;100207.50;;;17.39;78.56
49423;BME280;36998;51.974;20.150;2022-07-06T01:59:55;100204.16;;;17.37;78.69
49423;BME280;36998;51.974;20.150;2022-07-06T02:02:20;100206.25;;;17.35;78.74
49423;BME280;36998;51.974;20.150;2022-07-06T02:04:46;100209.81;;;17.29;78.50
49423;BME280;36998;51.974;20.150;2022-07-06T02:07:12;100204.34;;;17.29;79.00
49423;BME280;36998;51.974;20.150;2022-07-06T02:09:37;100208.78;;;17.30;78.59
49423;BME280;36998;51.974;20.150;2022-07-06T02:12:03;100203.75;;;17.27;79.02
49423;BME280;36998;51.974;20.150;2022-07-06T02:14:29;100205.84;;;17.25;78.88
49423;BME280;36998;51.974;20.150;2022-07-06T02:16:54;100202.88;;;17.26;78.91
49423;BME280;36998;51.974;20.150;2022-07-06T02:19:20;100207.09;;;17.29;79.03
49423;BME280;36998;51.974;20.150;2022-07-06T02:21:45;100207.31;;;17.27;78.69
49423;BME280;36998;51.974;20.150;2022-07-06T02:24:11;100205.00;;;17.31;79.01
49423;BME280;36998;51.974;20.150;2022-07-06T02:26:38;100207.91;;;17.29;79.02
49423;BME280;36998;51.974;20.150;2022-07-06T02:29:03;100208.56;;;17.25;79.33
49423;BME280;36998;51.974;20.150;2022-07-06T02:31:29;100216.53;;;17.26;79.04
49423;BME280;36998;51.974;20.150;2022-07-06T02:33:54;100219.69;;;17.23;79.37
49423;BME280;36998;51.974;20.150;2022-07-06T02:36:20;100216.75;;;17.25;79.27
49423;BME280;36998;51.974;20.150;2022-07-06T02:38:45;100213.78;;;17.26;79.03
49423;BME280;36998;51.974;20.150;2022-07-06T02:41:11;100217.41;;;17.27;79.49
49423;BME280;36998;51.974;20.150;2022-07-06T02:43:37;100205.41;;;17.28;79.35
49423;BME280;36998;51.974;20.150;2022-07-06T02:46:04;100199.13;;;17.27;79.10
49423;BME280;36998;51.974;20.150;2022-07-06T02:48:30;100203.94;;;17.32;79.34
49423;BME280;36998;51.974;20.150;2022-07-06T02:50:55;100207.91;;;17.36;79.03
49423;BME280;36998;51.974;20.150;2022-07-06T02:53:22;100215.09;;;17.37;78.98
49423;BME280;36998;51.974;20.150;2022-07-06T02:55:51;100204.16;;;17.37;78.86
49423;BME280;36998;51.974;20.150;2022-07-06T02:58:16;100220.13;;;17.34;79.06
49423;BME280;36998;51.974;20.150;2022-07-06T03:00:42;100208.78;;;17.30;79.17
49423;BME280;36998;51.974;20.150;2022-07-06T03:03:08;100207.09;;;17.22;79.06
49423;BME280;36998;51.974;20.150;2022-07-06T03:05:35;100209.19;;;17.20;79.14
49423;BME280;36998;51.974;20.150;2022-07-06T03:08:01;100204.75;;;17.19;79.23
49423;BME280;36998;51.974;20.150;2022-07-06T03:10:26;100201.63;;;17.16;79.29
49423;BME280;36998;51.974;20.150;2022-07-06T03:12:52;100206.00;;;17.10;79.36
49423;BME280;36998;51.974;20.150;2022-07-06T03:15:17;100201.19;;;17.05;79.15
49423;BME280;36998;51.974;20.150;2022-07-06T03:17:45;100199.09;;;17.01;79.14
49423;BME280;36998;51.974;20.150;2022-07-06T03:20:11;100193.22;;;16.97;79.69
49423;BME280;36998;51.974;20.150;2022-07-06T03:22:38;100183.97;;;16.92;79.61
49423;BME280;36998;51.974;20.150;2022-07-06T03:25:05;100183.53;;;16.88;79.54
49423;BME280;36998;51.974;20.150;2022-07-06T03:27:31;100186.88;;;16.83;79.56
49423;BME280;36998;51.974;20.150;2022-07-06T03:29:56;100179.75;;;16.82;79.48
49423;BME280;36998;51.974;20.150;2022-07-06T03:32:22;100188.16;;;16.81;79.54
49423;BME280;36998;51.974;20.150;2022-07-06T03:34:48;100188.97;;;16.75;79.75
49423;BME280;36998;51.974;20.150;2022-07-06T03:37:14;100188.50;;;16.71;79.47
49423;BME280;36998;51.974;20.150;2022-07-06T03:39:40;100192.66;;;16.67;79.48
49423;BME280;36998;51.974;20.150;2022-07-06T03:42:07;100196.03;;;16.62;79.84
49423;BME280;36998;51.974;20.150;2022-07-06T03:44:33;100199.38;;;16.58;79.97
49423;BME280;36998;51.974;20.150;2022-07-06T03:46:59;100202.50;;;16.55;80.10
49423;BME280;36998;51.974;20.150;2022-07-06T03:49:26;100198.50;;;16.51;79.66
49423;BME280;36998;51.974;20.150;2022-07-06T03:51:53;100203.09;;;16.50;79.88
49423;BME280;36998;51.974;20.150;2022-07-06T03:54:20;100195.97;;;16.49;79.76
49423;BME280;36998;51.974;20.150;2022-07-06T03:56:45;100195.97;;;16.49;80.02
49423;BME280;36998;51.974;20.150;2022-07-06T03:59:13;100193.03;;;16.51;79.98
49423;BME280;36998;51.974;20.150;2022-07-06T04:01:39;100189.47;;;16.50;79.93
49423;BME280;36998;51.974;20.150;2022-07-06T04:04:05;100193.91;;;16.51;79.83
49423;BME280;36998;51.974;20.150;2022-07-06T04:06:33;100189.06;;;16.53;79.76
49423;BME280;36998;51.974;20.150;2022-07-06T04:09:01;100188.00;;;16.54;79.71
49423;BME280;36998;51.974;20.150;2022-07-06T04:11:27;100191.38;;;16.56;80.04
49423;BME280;36998;51.974;20.150;2022-07-06T04:13:53;100188.47;;;16.58;79.72
49423;BME280;36998;51.974;20.150;2022-07-06T04:16:20;100183.63;;;16.60;79.89
49423;BME280;36998;51.974;20.150;2022-07-06T04:18:45;100185.13;;;16.62;80.09
49423;BME280;36998;51.974;20.150;2022-07-06T04:21:11;100189.31;;;16.65;80.01
49423;BME280;36998;51.974;20.150;2022-07-06T04:23:38;100179.69;;;16.69;79.79
49423;BME280;36998;51.974;20.150;2022-07-06T04:26:06;100173.59;;;16.74;79.96
49423;BME280;36998;51.974;20.150;2022-07-06T04:28:35;100178.91;;;16.82;79.64
49423;BME280;36998;51.974;20.150;2022-07-06T04:31:01;100171.78;;;16.88;79.96
49423;BME280;36998;51.974;20.150;2022-07-06T04:33:26;100165.69;;;16.92;79.70
49423;BME280;36998;51.974;20.150;2022-07-06T04:35:53;100186.91;;;17.03;79.83
49423;BME280;36998;51.974;20.150;2022-07-06T04:38:22;100184.81;;;17.19;79.63
49423;BME280;36998;51.974;20.150;2022-07-06T04:40:49;100186.09;;;17.36;79.79
49423;BME280;36998;51.974;20.150;2022-07-06T04:43:17;100191.13;;;17.66;79.86
49423;BME280;36998;51.974;20.150;2022-07-06T04:45:42;100187.53;;;17.92;79.68
49423;BME280;36998;51.974;20.150;2022-07-06T04:48:09;100180.53;;;18.16;79.30
49423;BME280;36998;51.974;20.150;2022-07-06T04:50:56;100181.66;;;18.46;78.85
49423;BME280;36998;51.974;20.150;2022-07-06T04:53:26;100194.81;;;18.69;78.05
49423;BME280;36998;51.974;20.150;2022-07-06T04:55:51;100192.22;;;18.88;77.33
49423;BME280;36998;51.974;20.150;2022-07-06T04:58:17;100186.22;;;19.04;77.21
49423;BME280;36998;51.974;20.150;2022-07-06T05:00:42;100189.00;;;19.23;76.96
49423;BME280;36998;51.974;20.150;2022-07-06T05:03:08;100179.75;;;19.49;76.18
49423;BME280;36998;51.974;20.150;2022-07-06T05:05:33;100189.13;;;19.66;75.57
49423;BME280;36998;51.974;20.150;2022-07-06T05:07:59;100187.31;;;19.78;74.97
49423;BME280;36998;51.974;20.150;2022-07-06T05:10:25;100190.38;;;19.88;74.92
49423;BME280;36998;51.974;20.150;2022-07-06T05:12:54;100192.97;;;20.02;74.27
49423;BME280;36998;51.974;20.150;2022-07-06T05:15:20;100189.31;;;20.08;73.77
49423;BME280;36998;51.974;20.150;2022-07-06T05:17:46;100195.94;;;20.19;73.11
49423;BME280;36998;51.974;20.150;2022-07-06T05:20:12;100196.41;;;20.34;72.56
49423;BME280;36998;51.974;20.150;2022-07-06T05:22:41;100196.84;;;20.49;71.90
49423;BME280;36998;51.974;20.150;2022-07-06T05:25:07;100204.38;;;20.72;70.11
49423;BME280;36998;51.974;20.150;2022-07-06T05:27:33;100204.91;;;20.81;69.50
49423;BME280;36998;51.974;20.150;2022-07-06T05:29:59;100212.47;;;20.97;68.84
49423;BME280;36998;51.974;20.150;2022-07-06T05:32:25;100202.94;;;21.00;68.05
49423;BME280;36998;51.974;20.150;2022-07-06T05:34:55;100213.47;;;21.15;67.32
49423;BME280;36998;51.974;20.150;2022-07-06T05:37:21;100204.97;;;21.35;66.22
49423;BME280;36998;51.974;20.150;2022-07-06T05:40:19;100214.63;;;21.37;65.56
49423;BME280;36998;51.974;20.150;2022-07-06T05:42:45;100211.75;;;21.32;65.56
49423;BME280;36998;51.974;20.150;2022-07-06T05:45:10;100212.66;;;21.14;66.03
49423;BME280;36998;51.974;20.150;2022-07-06T05:47:37;100218.34;;;21.01;65.99
49423;BME280;36998;51.974;20.150;2022-07-06T05:50:21;100230.22;;;20.83;66.01
49423;BME280;36998;51.974;20.150;2022-07-06T05:53:02;100232.59;;;20.61;66.30
49423;BME280;36998;51.974;20.150;2022-07-06T05:55:29;100232.00;;;20.41;66.29
49423;BME280;36998;51.974;20.150;2022-07-06T05:57:57;100234.72;;;20.22;66.12
49423;BME280;36998;51.974;20.150;2022-07-06T06:00:26;100230.59;;;20.13;66.22
49423;BME280;36998;51.974;20.150;2022-07-06T06:02:54;100226.97;;;20.38;66.80
49423;BME280;36998;51.974;20.150;2022-07-06T06:05:21;100240.59;;;20.26;66.89
49423;BME280;36998;51.974;20.150;2022-07-06T06:07:48;100249.19;;;20.29;66.12
49423;BME280;36998;51.974;20.150;2022-07-06T06:10:18;100243.31;;;20.26;66.04
49423;BME280;36998;51.974;20.150;2022-07-06T06:12:46;100236.00;;;20.20;66.10
49423;BME280;36998;51.974;20.150;2022-07-06T06:15:12;100239.66;;;20.14;66.50
49423;BME280;36998;51.974;20.150;2022-07-06T06:17:38;100232.63;;;19.99;65.99
49423;BME280;36998;51.974;20.150;2022-07-06T06:20:09;100231.31;;;19.83;66.41
49423;BME280;36998;51.974;20.150;2022-07-06T06:23:04;100242.72;;;19.80;66.77
49423;BME280;36998;51.974;20.150;2022-07-06T06:25:35;100239.22;;;19.73;66.69
49423;BME280;36998;51.974;20.150;2022-07-06T06:28:26;100243.28;;;19.64;67.23
49423;BME280;36998;51.974;20.150;2022-07-06T06:30:52;100239.34;;;19.53;67.81
49423;BME280;36998;51.974;20.150;2022-07-06T06:33:19;100237.06;;;19.50;68.02
49423;BME280;36998;51.974;20.150;2022-07-06T06:35:47;100240.63;;;19.51;67.46
49423;BME280;36998;51.974;20.150;2022-07-06T06:38:14;100248.63;;;19.52;67.75
49423;BME280;36998;51.974;20.150;2022-07-06T06:40:40;100253.00;;;19.60;68.11
49423;BME280;36998;51.974;20.150;2022-07-06T06:43:05;100243.69;;;19.68;67.75
49423;BME280;36998;51.974;20.150;2022-07-06T06:45:34;100252.09;;;19.73;68.02
49423;BME280;36998;51.974;20.150;2022-07-06T06:48:00;100254.13;;;19.77;67.55
49423;BME280;36998;51.974;20.150;2022-07-06T06:50:25;100246.69;;;19.84;67.82
49423;BME280;36998;51.974;20.150;2022-07-06T06:52:51;100250.44;;;19.90;68.35
49423;BME280;36998;51.974;20.150;2022-07-06T06:55:17;100251.66;;;19.94;68.15
49423;BME280;36998;51.974;20.150;2022-07-06T06:57:43;100242.59;;;19.94;67.81
49423;BME280;36998;51.974;20.150;2022-07-06T07:00:12;100245.97;;;19.96;67.68
49423;BME280;36998;51.974;20.150;2022-07-06T07:02:38;100241.75;;;19.93;67.27
49423;BME280;36998;51.974;20.150;2022-07-06T07:05:04;100246.41;;;19.93;67.38
49423;BME280;36998;51.974;20.150;2022-07-06T07:07:30;100248.47;;;19.97;66.72
49423;BME280;36998;51.974;20.150;2022-07-06T07:09:56;100236.84;;;20.02;66.36
49423;BME280;36998;51.974;20.150;2022-07-06T07:12:21;100245.84;;;20.09;65.96
49423;BME280;36998;51.974;20.150;2022-07-06T07:14:47;100248.50;;;20.16;65.53
49423;BME280;36998;51.974;20.150;2022-07-06T07:17:31;100254.13;;;20.21;65.58
49423;BME280;36998;51.974;20.150;2022-07-06T07:19:57;100253.91;;;20.22;64.64
49423;BME280;36998;51.974;20.150;2022-07-06T07:22:22;100248.81;;;20.26;64.43
49423;BME280;36998;51.974;20.150;2022-07-06T07:24:48;100248.59;;;20.27;64.25
49423;BME280;36998;51.974;20.150;2022-07-06T07:27:13;100251.47;;;20.32;64.23
49423;BME280;36998;51.974;20.150;2022-07-06T07:29:39;100242.41;;;20.32;63.39
49423;BME280;36998;51.974;20.150;2022-07-06T07:32:04;100244.72;;;20.35;62.95
49423;BME280;36998;51.974;20.150;2022-07-06T07:34:30;100234.13;;;20.39;62.24
49423;BME280;36998;51.974;20.150;2022-07-06T07:36:55;100242.25;;;20.45;61.62
49423;BME280;36998;51.974;20.150;2022-07-06T07:39:21;100242.38;;;20.57;61.64
49423;BME280;36998;51.974;20.150;2022-07-06T07:41:49;100234.66;;;20.66;61.05
49423;BME280;36998;51.974;20.150;2022-07-06T07:44:16;100234.56;;;20.72;60.11
49423;BME280;36998;51.974;20.150;2022-07-06T07:46:41;100229.44;;;20.76;59.61
49423;BME280;36998;51.974;20.150;2022-07-06T07:49:08;100230.59;;;20.87;59.30
49423;BME280;36998;51.974;20.150;2022-07-06T07:51:35;100236.75;;;21.12;58.88
49423;BME280;36998;51.974;20.150;2022-07-06T07:54:04;100227.00;;;21.58;57.97
49423;BME280;36998;51.974;20.150;2022-07-06T07:56:29;100228.66;;;22.06;56.56
49423;BME280;36998;51.974;20.150;2022-07-06T07:58:57;100231.00;;;22.50;55.89
49423;BME280;36998;51.974;20.150;2022-07-06T08:01:27;100225.34;;;22.68;54.98
49423;BME280;36998;51.974;20.150;2022-07-06T08:03:55;100228.69;;;22.70;54.63
49423;BME280;36998;51.974;20.150;2022-07-06T08:06:22;100227.53;;;22.54;55.00
49423;BME280;36998;51.974;20.150;2022-07-06T08:08:48;100230.66;;;22.46;55.35
49423;BME280;36998;51.974;20.150;2022-07-06T08:11:34;100242.84;;;22.62;55.05
49423;BME280;36998;51.974;20.150;2022-07-06T08:14:01;100235.50;;;22.79;53.63
49423;BME280;36998;51.974;20.150;2022-07-06T08:16:26;100240.59;;;22.99;52.92
49423;BME280;36998;51.974;20.150;2022-07-06T08:18:55;100239.66;;;23.22;51.60
49423;BME280;36998;51.974;20.150;2022-07-06T08:21:20;100234.38;;;23.21;51.34
49423;BME280;36998;51.974;20.150;2022-07-06T08:23:49;100239.34;;;23.07;50.67
49423;BME280;36998;51.974;20.150;2022-07-06T08:26:14;100232.69;;;22.91;50.75
49423;BME280;36998;51.974;20.150;2022-07-06T08:28:40;100233.16;;;22.88;50.48
49423;BME280;36998;51.974;20.150;2022-07-06T08:31:05;100232.34;;;22.99;50.39
49423;BME280;36998;51.974;20.150;2022-07-06T08:33:33;100238.53;;;23.06;49.25
49423;BME280;36998;51.974;20.150;2022-07-06T08:35:59;100232.19;;;23.06;49.02
49423;BME280;36998;51.974;20.150;2022-07-06T08:38:24;100236.34;;;23.08;49.28
49423;BME280;36998;51.974;20.150;2022-07-06T08:40:50;100239.50;;;23.00;49.09
49423;BME280;36998;51.974;20.150;2022-07-06T08:43:17;100243.97;;;22.89;49.29
49423;BME280;36998;51.974;20.150;2022-07-06T08:45:44;100241.50;;;22.64;48.45
49423;BME280;36998;51.974;20.150;2022-07-06T08:48:11;100246.34;;;22.46;48.44
49423;BME280;36998;51.974;20.150;2022-07-06T08:50:37;100232.63;;;22.34;48.14
49423;BME280;36998;51.974;20.150;2022-07-06T08:53:04;100233.81;;;22.26;47.50
49423;BME280;36998;51.974;20.150;2022-07-06T08:55:30;100233.94;;;22.19;47.73
49423;BME280;36998;51.974;20.150;2022-07-06T08:57:56;100244.47;;;22.23;47.61
49423;BME280;36998;51.974;20.150;2022-07-06T09:00:25;100247.34;;;22.28;47.70
49423;BME280;36998;51.974;20.150;2022-07-06T09:03:11;100239.09;;;22.28;46.35
49423;BME280;36998;51.974;20.150;2022-07-06T09:05:39;100243.63;;;22.22;44.95
49423;BME280;36998;51.974;20.150;2022-07-06T09:08:05;100260.13;;;22.22;45.01
49423;BME280;36998;51.974;20.150;2022-07-06T09:10:31;100244.59;;;22.28;44.87
49423;BME280;36998;51.974;20.150;2022-07-06T09:13:07;100243.03;;;22.32;45.29
49423;BME280;36998;51.974;20.150;2022-07-06T09:15:35;100234.16;;;22.41;44.52
49423;BME280;36998;51.974;20.150;2022-07-06T09:18:02;100240.13;;;22.50;45.00
49423;BME280;36998;51.974;20.150;2022-07-06T09:20:29;100238.75;;;22.64;43.81
49423;BME280;36998;51.974;20.150;2022-07-06T09:23:05;100237.38;;;22.79;43.22
49423;BME280;36998;51.974;20.150;2022-07-06T09:25:32;100238.19;;;23.03;42.90
49423;BME280;36998;51.974;20.150;2022-07-06T09:27:58;100225.06;;;23.39;41.93
49423;BME280;36998;51.974;20.150;2022-07-06T09:30:25;100223.91;;;23.51;41.47
49423;BME280;36998;51.974;20.150;2022-07-06T09:32:54;100232.06;;;23.46;42.08
49423;BME280;36998;51.974;20.150;2022-07-06T09:35:28;100229.22;;;23.41;41.30
49423;BME280;36998;51.974;20.150;2022-07-06T09:40:32;100224.28;;;23.60;40.73
49423;BME280;36998;51.974;20.150;2022-07-06T09:45:42;100223.09;;;24.06;39.80
49423;BME280;36998;51.974;20.150;2022-07-06T09:48:14;100225.16;;;24.33;39.23
49423;BME280;36998;51.974;20.150;2022-07-06T09:50:42;100229.25;;;24.30;39.11
49423;BME280;36998;51.974;20.150;2022-07-06T09:53:09;100231.19;;;24.30;38.87
49423;BME280;36998;51.974;20.150;2022-07-06T09:55:34;100235.84;;;24.29;38.72
49423;BME280;36998;51.974;20.150;2022-07-06T09:58:00;100231.78;;;24.15;38.45
49423;BME280;36998;51.974;20.150;2022-07-06T10:00:26;100228.41;;;24.30;39.10
49423;BME280;36998;51.974;20.150;2022-07-06T10:02:53;100225.78;;;24.40;39.27
49423;BME280;36998;51.974;20.150;2022-07-06T10:05:21;100230.16;;;24.36;38.86
49423;BME280;36998;51.974;20.150;2022-07-06T10:07:49;100237.34;;;24.37;37.67
49423;BME280;36998;51.974;20.150;2022-07-06T10:10:15;100242.00;;;24.53;37.77
49423;BME280;36998;51.974;20.150;2022-07-06T10:12:42;100236.13;;;24.72;37.76
49423;BME280;36998;51.974;20.150;2022-07-06T10:15:10;100241.06;;;25.14;37.98
49423;BME280;36998;51.974;20.150;2022-07-06T10:17:37;100234.06;;;25.33;36.54
49423;BME280;36998;51.974;20.150;2022-07-06T10:20:04;100234.78;;;25.51;35.33
49423;BME280;36998;51.974;20.150;2022-07-06T10:22:30;100235.97;;;25.92;35.38
49423;BME280;36998;51.974;20.150;2022-07-06T10:25:28;100237.94;;;26.44;34.46
49423;BME280;36998;51.974;20.150;2022-07-06T10:28:23;100237.47;;;26.57;33.67
49423;BME280;36998;51.974;20.150;2022-07-06T10:30:55;100231.38;;;26.60;33.31
49423;BME280;36998;51.974;20.150;2022-07-06T10:33:21;100232.28;;;26.76;33.28
49423;BME280;36998;51.974;20.150;2022-07-06T10:35:47;100229.84;;;27.00;31.96
49423;BME280;36998;51.974;20.150;2022-07-06T10:38:14;100232.44;;;27.48;31.55
49423;BME280;36998;51.974;20.150;2022-07-06T10:40:41;100228.28;;;27.71;30.76
49423;BME280;36998;51.974;20.150;2022-07-06T10:43:51;100240.78;;;27.58;30.75
49423;BME280;36998;51.974;20.150;2022-07-06T10:46:17;100230.22;;;27.40;31.11
49423;BME280;36998;51.974;20.150;2022-07-06T10:48:45;100226.91;;;27.38;30.89
49423;BME280;36998;51.974;20.150;2022-07-06T10:51:12;100230.50;;;27.69;30.54
49423;BME280;36998;51.974;20.150;2022-07-06T10:53:39;100231.03;;;28.17;29.96
49423;BME280;36998;51.974;20.150;2022-07-06T10:56:07;100229.84;;;28.49;29.48
49423;BME280;36998;51.974;20.150;2022-07-06T11:01:11;100221.00;;;28.96;29.53
49423;BME280;36998;51.974;20.150;2022-07-06T11:03:44;100229.22;;;29.16;28.42
49423;BME280;36998;51.974;20.150;2022-07-06T11:06:20;100223.31;;;28.79;28.53
49423;BME280;36998;51.974;20.150;2022-07-06T11:08:57;100212.16;;;28.19;29.13
49423;BME280;36998;51.974;20.150;2022-07-06T11:14:16;100212.97;;;28.19;30.23
49423;BME280;36998;51.974;20.150;2022-07-06T11:21:47;100207.53;;;29.53;28.58
49423;BME280;36998;51.974;20.150;2022-07-06T11:24:15;100205.94;;;30.05;27.77
49423;BME280;36998;51.974;20.150;2022-07-06T11:26:43;100213.69;;;30.37;26.99
49423;BME280;36998;51.974;20.150;2022-07-06T11:29:12;100215.16;;;30.53;26.04
49423;BME280;36998;51.974;20.150;2022-07-06T11:31:42;100213.16;;;31.02;26.05
49423;BME280;36998;51.974;20.150;2022-07-06T11:34:10;100204.19;;;31.43;25.60
49423;BME280;36998;51.974;20.150;2022-07-06T11:36:38;100212.88;;;31.55;25.38
49423;BME280;36998;51.974;20.150;2022-07-06T11:39:05;100217.28;;;31.75;25.21
49423;BME280;36998;51.974;20.150;2022-07-06T11:41:35;100207.59;;;31.86;24.40
49423;BME280;36998;51.974;20.150;2022-07-06T11:44:05;100204.56;;;32.02;24.71
49423;BME280;36998;51.974;20.150;2022-07-06T11:46:33;100189.09;;;34.22;22.03
49423;BME280;36998;51.974;20.150;2022-07-06T11:49:19;100195.44;;;36.10;20.39
49423;BME280;36998;51.974;20.150;2022-07-06T11:51:46;100186.16;;;37.94;18.56
49423;BME280;36998;51.974;20.150;2022-07-06T11:54:14;100184.25;;;37.53;18.52
49423;BME280;36998;51.974;20.150;2022-07-06T11:56:50;100184.06;;;36.36;19.39
49423;BME280;36998;51.974;20.150;2022-07-06T11:59:21;100188.97;;;35.62;20.29
49423;BME280;36998;51.974;20.150;2022-07-06T12:01:47;100188.00;;;35.15;20.44
49423;BME280;36998;51.974;20.150;2022-07-06T12:04:12;100189.16;;;35.14;20.53
49423;BME280;36998;51.974;20.150;2022-07-06T12:06:38;100185.91;;;37.33;18.79
49423;BME280;36998;51.974;20.150;2022-07-06T12:09:03;100187.47;;;40.11;16.73
49423;BME280;36998;51.974;20.150;2022-07-06T12:11:52;100177.13;;;43.42;14.65
49423;BME280;36998;51.974;20.150;2022-07-06T12:14:20;100174.63;;;48.30;11.18
49423;BME280;36998;51.974;20.150;2022-07-06T12:16:48;100170.28;;;51.53;8.86
49423;BME280;36998;51.974;20.150;2022-07-06T12:19:15;100171.88;;;52.23;8.19
49423;BME280;36998;51.974;20.150;2022-07-06T12:21:50;100172.13;;;52.45;8.14
49423;BME280;36998;51.974;20.150;2022-07-06T12:24:20;100173.56;;;55.27;6.99
49423;BME280;36998;51.974;20.150;2022-07-06T12:26:47;100178.03;;;58.04;5.69
49423;BME280;36998;51.974;20.150;2022-07-06T12:29:13;100178.19;;;57.77;5.66
49423;BME280;36998;51.974;20.150;2022-07-06T12:31:47;100162.56;;;53.06;7.06
49423;BME280;36998;51.974;20.150;2022-07-06T12:34:15;100169.84;;;48.58;8.89
49423;BME280;36998;51.974;20.150;2022-07-06T12:39:12;100182.50;;;42.61;13.02
49423;BME280;36998;51.974;20.150;2022-07-06T12:41:45;100182.94;;;40.22;15.19
49423;BME280;36998;51.974;20.150;2022-07-06T12:44:12;100193.81;;;38.31;15.98
49423;BME280;36998;51.974;20.150;2022-07-06T12:46:39;100195.94;;;36.50;16.94
49423;BME280;36998;51.974;20.150;2022-07-06T12:49:23;100188.94;;;35.02;18.35
49423;BME280;36998;51.974;20.150;2022-07-06T12:51:52;100208.47;;;34.01;19.52
49423;BME280;36998;51.974;20.150;2022-07-06T12:54:18;100193.31;;;33.12;20.99
49423;BME280;36998;51.974;20.150;2022-07-06T12:57:08;100206.63;;;32.10;21.54
49423;BME280;36998;51.974;20.150;2022-07-06T12:59:37;100220.47;;;31.17;23.31
49423;BME280;36998;51.974;20.150;2022-07-06T13:02:08;100220.41;;;30.36;24.26
49423;BME280;36998;51.974;20.150;2022-07-06T13:04:35;100226.13;;;29.62;25.51
49423;BME280;36998;51.974;20.150;2022-07-06T13:07:01;100232.41;;;28.94;25.76